sensor_id;sensor_type;location;lat;lon;timestamp;temperature;humidity
4107;DHT22;21906;50.812;7.132;2022-07-05T00:00:04;19.70;57.80
4107;DHT22;21906;50.812;7.132;2022-07-05T00:02:30;19.70;57.80
4107;DHT22;21906;50.812;7.132;2022-07-05T00:04:56;19.60;57.80
4107;DHT22;21906;50.812;7.132;2022-07-05T00:07:21;19.60;58.00
4107;DHT22;21906;50.812;7.132;2022-07-05T00:09:53;19.50;58.20
4107;DHT22;21906;50.812;7.132;2022-07-05T00:12:21;19.50;58.50
4107;DHT22;21906;50.812;7.132;2022-07-05T00:14:48;19.40;58.60
4107;DHT22;21906;50.812;7.132;2022-07-05T00:17:15;19.40;58.70
4107;DHT22;21906;50.812;7.132;2022-07-05T00:19:41;19.40;58.90
4107;DHT22;21906;50.812;7.132;2022-07-05T00:22:07;19.40;59.20
4107;DHT22;21906;50.812;7.132;2022-07-05T00:24:33;19.30;59.30
4107;DHT22;21906;50.812;7.132;2022-07-05T00:26:58;19.30;59.30
4107;DHT22;21906;50.812;7.132;2022-07-05T00:29:24;19.30;59.40
4107;DHT22;21906;50.812;7.132;2022-07-05T00:31:50;19.30;59.60
4107;DHT22;21906;50.812;7.132;2022-07-05T00:34:16;19.30;59.60
4107;DHT22;21906;50.812;7.132;2022-07-05T00:36:41;19.20;59.80
4107;DHT22;21906;50.812;7.132;2022-07-05T00:39:07;19.20;59.90
4107;DHT22;21906;50.812;7.132;2022-07-05T00:41:33;19.20;60.00
4107;DHT22;21906;50.812;7.132;2022-07-05T00:44:01;19.20;60.30
4107;DHT22;21906;50.812;7.132;2022-07-05T00:46:27;19.20;60.30
4107;DHT22;21906;50.812;7.132;2022-07-05T00:48:55;19.10;60.40
4107;DHT22;21906;50.812;7.132;2022-07-05T00:51:22;19.10;60.40
4107;DHT22;21906;50.812;7.132;2022-07-05T00:53:49;19.00;60.60
4107;DHT22;21906;50.812;7.132;2022-07-05T00:56:15;19.00;60.60
4107;DHT22;21906;50.812;7.132;2022-07-05T00:58:41;19.00;60.60
4107;DHT22;21906;50.812;7.132;2022-07-05T01:01:09;18.90;60.90
4107;DHT22;21906;50.812;7.132;2022-07-05T01:03:35;18.90;61.00
4107;DHT22;21906;50.812;7.132;2022-07-05T01:06:02;18.90;61.20
4107;DHT22;21906;50.812;7.132;2022-07-05T01:08:30;18.80;61.30
4107;DHT22;21906;50.812;7.132;2022-07-05T01:10:56;18.70;61.70
4107;DHT22;21906;50.812;7.132;2022-07-05T01:13:23;18.60;61.80
4107;DHT22;21906;50.812;7.132;2022-07-05T01:15:49;18.60;61.90
4107;DHT22;21906;50.812;7.132;2022-07-05T01:18:15;18.60;61.80
4107;DHT22;21906;50.812;7.132;2022-07-05T01:20:41;18.60;61.90
4107;DHT22;21906;50.812;7.132;2022-07-05T01:23:08;18.60;61.90
4107;DHT22;21906;50.812;7.132;2022-07-05T01:25:34;18.60;61.90
4107;DHT22;21906;50.812;7.132;2022-07-05T01:28:00;18.50;62.20
4107;DHT22;21906;50.812;7.132;2022-07-05T01:30:28;18.50;62.30
4107;DHT22;21906;50.812;7.132;2022-07-05T01:32:54;18.40;62.20
4107;DHT22;21906;50.812;7.132;2022-07-05T01:35:20;18.40;62.30
4107;DHT22;21906;50.812;7.132;2022-07-05T01:37:50;18.40;62.60
4107;DHT22;21906;50.812;7.132;2022-07-05T01:40:17;18.30;62.80
4107;DHT22;21906;50.812;7.132;2022-07-05T01:42:43;18.30;63.00
4107;DHT22;21906;50.812;7.132;2022-07-05T01:45:09;18.30;63.20
4107;DHT22;21906;50.812;7.132;2022-07-05T01:47:38;18.30;63.10
4107;DHT22;21906;50.812;7.132;2022-07-05T01:50:06;18.30;63.20
4107;DHT22;21906;50.812;7.132;2022-07-05T01:52:36;18.20;63.60
4107;DHT22;21906;50.812;7.132;2022-07-05T01:55:05;18.20;63.70
4107;DHT22;21906;50.812;7.132;2022-07-05T01:57:31;18.10;64.10
4107;DHT22;21906;50.812;7.132;2022-07-05T01:59:57;18.10;64.10
4107;DHT22;21906;50.812;7.132;2022-07-05T02:02:22;18.10;64.40
4107;DHT22;21906;50.812;7.132;2022-07-05T02:04:48;18.10;64.40
4107;DHT22;21906;50.812;7.132;2022-07-05T02:07:14;18.00;64.30
4107;DHT22;21906;50.812;7.132;2022-07-05T02:09:39;18.00;64.10
4107;DHT22;21906;50.812;7.132;2022-07-05T02:12:05;18.00;64.20
4107;DHT22;21906;50.812;7.132;2022-07-05T02:14:31;18.00;64.40
4107;DHT22;21906;50.812;7.132;2022-07-05T02:16:57;18.00;64.30
4107;DHT22;21906;50.812;7.132;2022-07-05T02:19:23;18.00;64.40
4107;DHT22;21906;50.812;7.132;2022-07-05T02:21:49;18.00;64.30
4107;DHT22;21906;50.812;7.132;2022-07-05T02:24:15;17.90;64.30
4107;DHT22;21906;50.812;7.132;2022-07-05T02:26:40;17.90;64.40
4107;DHT22;21906;50.812;7.132;2022-07-05T02:29:06;17.90;64.50
4107;DHT22;21906;50.812;7.132;2022-07-05T02:31:32;17.80;64.60
4107;DHT22;21906;50.812;7.132;2022-07-05T02:33:58;17.90;64.70
4107;DHT22;21906;50.812;7.132;2022-07-05T02:36:24;17.80;64.60
4107;DHT22;21906;50.812;7.132;2022-07-05T02:38:50;17.80;64.50
4107;DHT22;21906;50.812;7.132;2022-07-05T02:41:16;17.80;64.50
4107;DHT22;21906;50.812;7.132;2022-07-05T02:43:42;17.80;64.60
4107;DHT22;21906;50.812;7.132;2022-07-05T02:46:08;17.70;64.70
4107;DHT22;21906;50.812;7.132;2022-07-05T02:48:35;17.70;64.80
4107;DHT22;21906;50.812;7.132;2022-07-05T02:51:02;17.70;64.70
4107;DHT22;21906;50.812;7.132;2022-07-05T02:53:27;17.70;64.80
4107;DHT22;21906;50.812;7.132;2022-07-05T02:55:54;17.60;64.70
4107;DHT22;21906;50.812;7.132;2022-07-05T02:58:19;17.60;64.80
4107;DHT22;21906;50.812;7.132;2022-07-05T03:00:46;17.60;65.00
4107;DHT22;21906;50.812;7.132;2022-07-05T03:03:13;17.60;65.20
4107;DHT22;21906;50.812;7.132;2022-07-05T03:05:39;17.50;65.10
4107;DHT22;21906;50.812;7.132;2022-07-05T03:08:05;17.50;65.20
4107;DHT22;21906;50.812;7.132;2022-07-05T03:10:30;17.50;65.60
4107;DHT22;21906;50.812;7.132;2022-07-05T03:12:56;17.40;65.50
4107;DHT22;21906;50.812;7.132;2022-07-05T03:15:22;17.40;65.30
4107;DHT22;21906;50.812;7.132;2022-07-05T03:17:47;17.40;65.50
4107;DHT22;21906;50.812;7.132;2022-07-05T03:20:13;17.40;65.60
4107;DHT22;21906;50.812;7.132;2022-07-05T03:22:38;17.40;65.70
4107;DHT22;21906;50.812;7.132;2022-07-05T03:25:05;17.40;65.90
4107;DHT22;21906;50.812;7.132;2022-07-05T03:27:31;17.40;65.70
4107;DHT22;21906;50.812;7.132;2022-07-05T03:29:57;17.30;65.80
4107;DHT22;21906;50.812;7.132;2022-07-05T03:32:22;17.30;65.80
4107;DHT22;21906;50.812;7.132;2022-07-05T03:34:48;17.30;65.70
4107;DHT22;21906;50.812;7.132;2022-07-05T03:37:14;17.30;65.70
4107;DHT22;21906;50.812;7.132;2022-07-05T03:39:40;17.40;65.70
4107;DHT22;21906;50.812;7.132;2022-07-05T03:42:06;17.40;65.60
4107;DHT22;21906;50.812;7.132;2022-07-05T03:44:31;17.40;65.80
4107;DHT22;21906;50.812;7.132;2022-07-05T03:46:58;17.40;65.80
4107;DHT22;21906;50.812;7.132;2022-07-05T03:49:24;17.40;65.70
4107;DHT22;21906;50.812;7.132;2022-07-05T03:51:50;17.40;65.60
4107;DHT22;21906;50.812;7.132;2022-07-05T03:54:16;17.50;65.70
4107;DHT22;21906;50.812;7.132;2022-07-05T03:56:42;17.40;65.70
4107;DHT22;21906;50.812;7.132;2022-07-05T03:59:07;17.40;65.70
4107;DHT22;21906;50.812;7.132;2022-07-05T04:01:33;17.40;65.70
4107;DHT22;21906;50.812;7.132;2022-07-05T04:03:59;17.40;65.70
4107;DHT22;21906;50.812;7.132;2022-07-05T04:06:24;17.40;65.70
4107;DHT22;21906;50.812;7.132;2022-07-05T04:08:50;17.40;65.80
4107;DHT22;21906;50.812;7.132;2022-07-05T04:11:16;17.40;65.70
4107;DHT22;21906;50.812;7.132;2022-07-05T04:13:42;17.40;65.80
4107;DHT22;21906;50.812;7.132;2022-07-05T04:16:08;17.40;66.00
4107;DHT22;21906;50.812;7.132;2022-07-05T04:18:34;17.40;65.90
4107;DHT22;21906;50.812;7.132;2022-07-05T04:21:01;17.40;66.10
4107;DHT22;21906;50.812;7.132;2022-07-05T04:23:26;17.40;66.00
4107;DHT22;21906;50.812;7.132;2022-07-05T04:25:52;17.40;66.00
4107;DHT22;21906;50.812;7.132;2022-07-05T04:28:18;17.50;65.80
4107;DHT22;21906;50.812;7.132;2022-07-05T04:30:43;17.50;65.90
4107;DHT22;21906;50.812;7.132;2022-07-05T04:33:09;17.50;65.70
4107;DHT22;21906;50.812;7.132;2022-07-05T04:35:36;17.60;65.60
4107;DHT22;21906;50.812;7.132;2022-07-05T04:38:01;17.60;65.40
4107;DHT22;21906;50.812;7.132;2022-07-05T04:40:27;17.60;65.40
4107;DHT22;21906;50.812;7.132;2022-07-05T04:42:53;17.70;65.40
4107;DHT22;21906;50.812;7.132;2022-07-05T04:45:18;17.70;65.40
4107;DHT22;21906;50.812;7.132;2022-07-05T04:47:44;17.70;65.40
4107;DHT22;21906;50.812;7.132;2022-07-05T04:50:09;17.70;65.40
4107;DHT22;21906;50.812;7.132;2022-07-05T04:52:35;17.70;65.60
4107;DHT22;21906;50.812;7.132;2022-07-05T04:55:02;17.80;65.50
4107;DHT22;21906;50.812;7.132;2022-07-05T04:57:27;17.80;65.50
4107;DHT22;21906;50.812;7.132;2022-07-05T04:59:53;17.90;65.40
4107;DHT22;21906;50.812;7.132;2022-07-05T05:02:19;17.80;65.40
4107;DHT22;21906;50.812;7.132;2022-07-05T05:04:44;17.80;65.40
4107;DHT22;21906;50.812;7.132;2022-07-05T05:07:10;17.90;65.20
4107;DHT22;21906;50.812;7.132;2022-07-05T05:09:35;17.90;65.40
4107;DHT22;21906;50.812;7.132;2022-07-05T05:12:02;17.90;65.50
4107;DHT22;21906;50.812;7.132;2022-07-05T05:14:27;17.90;65.40
4107;DHT22;21906;50.812;7.132;2022-07-05T05:16:53;18.00;65.40
4107;DHT22;21906;50.812;7.132;2022-07-05T05:19:18;18.00;65.40
4107;DHT22;21906;50.812;7.132;2022-07-05T05:21:44;18.10;65.40
4107;DHT22;21906;50.812;7.132;2022-07-05T05:24:10;18.10;65.60
4107;DHT22;21906;50.812;7.132;2022-07-05T05:26:35;18.20;65.50
4107;DHT22;21906;50.812;7.132;2022-07-05T05:29:01;18.20;65.50
4107;DHT22;21906;50.812;7.132;2022-07-05T05:31:27;18.10;66.20
4107;DHT22;21906;50.812;7.132;2022-07-05T05:33:53;18.20;66.00
4107;DHT22;21906;50.812;7.132;2022-07-05T05:36:18;18.30;65.80
4107;DHT22;21906;50.812;7.132;2022-07-05T05:38:44;18.40;65.70
4107;DHT22;21906;50.812;7.132;2022-07-05T05:41:09;18.30;65.60
4107;DHT22;21906;50.812;7.132;2022-07-05T05:43:35;18.40;65.40
4107;DHT22;21906;50.812;7.132;2022-07-05T05:46:01;18.50;65.40
4107;DHT22;21906;50.812;7.132;2022-07-05T05:48:28;18.40;65.80
4107;DHT22;21906;50.812;7.132;2022-07-05T05:50:53;18.40;66.00
4107;DHT22;21906;50.812;7.132;2022-07-05T05:53:19;18.60;65.70
4107;DHT22;21906;50.812;7.132;2022-07-05T05:55:45;18.60;65.70
4107;DHT22;21906;50.812;7.132;2022-07-05T05:58:15;18.70;65.50
4107;DHT22;21906;50.812;7.132;2022-07-05T06:00:42;18.70;65.20
4107;DHT22;21906;50.812;7.132;2022-07-05T06:03:09;18.90;64.90
4107;DHT22;21906;50.812;7.132;2022-07-05T06:05:34;18.90;64.10
4107;DHT22;21906;50.812;7.132;2022-07-05T06:08:00;19.00;63.90
4107;DHT22;21906;50.812;7.132;2022-07-05T06:10:32;19.10;63.50
4107;DHT22;21906;50.812;7.132;2022-07-05T06:13:01;19.20;63.00
4107;DHT22;21906;50.812;7.132;2022-07-05T06:15:27;19.10;61.40
4107;DHT22;21906;50.812;7.132;2022-07-05T06:17:53;19.10;61.10
4107;DHT22;21906;50.812;7.132;2022-07-05T06:20:27;19.20;61.00
4107;DHT22;21906;50.812;7.132;2022-07-05T06:22:54;19.20;61.30
4107;DHT22;21906;50.812;7.132;2022-07-05T06:25:20;19.10;61.20
4107;DHT22;21906;50.812;7.132;2022-07-05T06:27:51;19.20;61.30
4107;DHT22;21906;50.812;7.132;2022-07-05T06:30:18;19.30;61.20
4107;DHT22;21906;50.812;7.132;2022-07-05T06:32:46;19.30;60.60
4107;DHT22;21906;50.812;7.132;2022-07-05T06:35:12;19.30;61.30
4107;DHT22;21906;50.812;7.132;2022-07-05T06:37:55;19.50;61.50
4107;DHT22;21906;50.812;7.132;2022-07-05T06:40:22;19.30;60.80
4107;DHT22;21906;50.812;7.132;2022-07-05T06:42:49;19.40;61.00
4107;DHT22;21906;50.812;7.132;2022-07-05T06:45:15;19.50;60.40
4107;DHT22;21906;50.812;7.132;2022-07-05T06:47:41;19.40;60.60
4107;DHT22;21906;50.812;7.132;2022-07-05T06:50:08;19.50;60.10
4107;DHT22;21906;50.812;7.132;2022-07-05T06:52:34;19.70;59.80
4107;DHT22;21906;50.812;7.132;2022-07-05T06:55:00;19.90;59.60
4107;DHT22;21906;50.812;7.132;2022-07-05T06:57:26;19.90;59.30
4107;DHT22;21906;50.812;7.132;2022-07-05T06:59:52;19.90;59.10
4107;DHT22;21906;50.812;7.132;2022-07-05T07:02:18;19.90;59.60
4107;DHT22;21906;50.812;7.132;2022-07-05T07:04:45;20.00;59.80
4107;DHT22;21906;50.812;7.132;2022-07-05T07:07:11;19.90;59.00
4107;DHT22;21906;50.812;7.132;2022-07-05T07:10:03;19.80;59.80
4107;DHT22;21906;50.812;7.132;2022-07-05T07:12:29;19.90;60.70
4107;DHT22;21906;50.812;7.132;2022-07-05T07:14:55;19.90;59.50
4107;DHT22;21906;50.812;7.132;2022-07-05T07:17:21;19.90;58.50
4107;DHT22;21906;50.812;7.132;2022-07-05T07:19:47;20.00;58.80
4107;DHT22;21906;50.812;7.132;2022-07-05T07:22:12;20.20;57.70
4107;DHT22;21906;50.812;7.132;2022-07-05T07:24:38;20.30;57.50
4107;DHT22;21906;50.812;7.132;2022-07-05T07:27:04;20.40;57.60
4107;DHT22;21906;50.812;7.132;2022-07-05T07:29:32;20.50;56.30
4107;DHT22;21906;50.812;7.132;2022-07-05T07:31:58;20.40;57.50
4107;DHT22;21906;50.812;7.132;2022-07-05T07:34:25;20.50;57.20
4107;DHT22;21906;50.812;7.132;2022-07-05T07:36:51;20.60;56.60
4107;DHT22;21906;50.812;7.132;2022-07-05T07:39:18;20.50;55.80
4107;DHT22;21906;50.812;7.132;2022-07-05T07:41:44;20.50;55.40
4107;DHT22;21906;50.812;7.132;2022-07-05T07:44:09;20.50;55.80
4107;DHT22;21906;50.812;7.132;2022-07-05T07:46:35;20.50;56.10
4107;DHT22;21906;50.812;7.132;2022-07-05T07:49:01;20.60;55.20
4107;DHT22;21906;50.812;7.132;2022-07-05T07:51:27;20.80;55.90
4107;DHT22;21906;50.812;7.132;2022-07-05T07:53:54;20.90;55.10
4107;DHT22;21906;50.812;7.132;2022-07-05T07:56:20;21.00;55.50
4107;DHT22;21906;50.812;7.132;2022-07-05T07:58:47;21.20;53.20
4107;DHT22;21906;50.812;7.132;2022-07-05T08:01:13;21.20;53.40
4107;DHT22;21906;50.812;7.132;2022-07-05T08:03:40;21.10;52.90
4107;DHT22;21906;50.812;7.132;2022-07-05T08:06:06;21.10;53.40
4107;DHT22;21906;50.812;7.132;2022-07-05T08:08:34;21.00;53.30
4107;DHT22;21906;50.812;7.132;2022-07-05T08:11:00;21.10;53.40
4107;DHT22;21906;50.812;7.132;2022-07-05T08:13:26;21.10;53.80
4107;DHT22;21906;50.812;7.132;2022-07-05T08:15:52;21.10;54.10
4107;DHT22;21906;50.812;7.132;2022-07-05T08:18:17;21.10;54.20
4107;DHT22;21906;50.812;7.132;2022-07-05T08:21:02;21.30;53.70
4107;DHT22;21906;50.812;7.132;2022-07-05T08:23:46;21.40;52.80
4107;DHT22;21906;50.812;7.132;2022-07-05T08:26:11;21.50;52.20
4107;DHT22;21906;50.812;7.132;2022-07-05T08:28:37;21.60;52.60
4107;DHT22;21906;50.812;7.132;2022-07-05T08:31:03;21.50;51.60
4107;DHT22;21906;50.812;7.132;2022-07-05T08:33:28;21.70;50.50
4107;DHT22;21906;50.812;7.132;2022-07-05T08:35:54;21.70;49.80
4107;DHT22;21906;50.812;7.132;2022-07-05T08:38:20;21.80;49.50
4107;DHT22;21906;50.812;7.132;2022-07-05T08:40:50;21.80;50.10
4107;DHT22;21906;50.812;7.132;2022-07-05T08:43:17;21.70;50.30
4107;DHT22;21906;50.812;7.132;2022-07-05T08:45:44;21.70;49.80
4107;DHT22;21906;50.812;7.132;2022-07-05T08:48:10;21.90;49.80
4107;DHT22;21906;50.812;7.132;2022-07-05T08:50:39;21.90;49.40
4107;DHT22;21906;50.812;7.132;2022-07-05T08:53:06;22.20;48.70
4107;DHT22;21906;50.812;7.132;2022-07-05T08:55:32;22.30;48.50
4107;DHT22;21906;50.812;7.132;2022-07-05T08:57:59;22.50;48.60
4107;DHT22;21906;50.812;7.132;2022-07-05T09:00:25;22.50;49.30
4107;DHT22;21906;50.812;7.132;2022-07-05T09:02:51;22.60;49.30
4107;DHT22;21906;50.812;7.132;2022-07-05T09:05:18;22.80;46.80
4107;DHT22;21906;50.812;7.132;2022-07-05T09:07:55;22.90;45.80
4107;DHT22;21906;50.812;7.132;2022-07-05T09:10:26;22.90;45.90
4107;DHT22;21906;50.812;7.132;2022-07-05T09:12:51;22.90;46.00
4107;DHT22;21906;50.812;7.132;2022-07-05T09:15:17;22.90;46.50
4107;DHT22;21906;50.812;7.132;2022-07-05T09:17:46;22.90;47.00
4107;DHT22;21906;50.812;7.132;2022-07-05T09:20:14;22.70;47.00
4107;DHT22;21906;50.812;7.132;2022-07-05T09:22:51;22.60;47.40
4107;DHT22;21906;50.812;7.132;2022-07-05T09:25:24;22.60;46.90
4107;DHT22;21906;50.812;7.132;2022-07-05T09:30:38;22.40;46.80
4107;DHT22;21906;50.812;7.132;2022-07-05T09:33:15;22.30;47.80
4107;DHT22;21906;50.812;7.132;2022-07-05T09:35:55;22.40;46.60
4107;DHT22;21906;50.812;7.132;2022-07-05T09:38:26;22.50;47.10
4107;DHT22;21906;50.812;7.132;2022-07-05T09:40:53;22.90;45.50
4107;DHT22;21906;50.812;7.132;2022-07-05T09:43:23;23.10;43.80
4107;DHT22;21906;50.812;7.132;2022-07-05T09:46:00;23.30;43.80
4107;DHT22;21906;50.812;7.132;2022-07-05T09:48:28;23.40;44.60
4107;DHT22;21906;50.812;7.132;2022-07-05T09:51:05;23.20;45.20
4107;DHT22;21906;50.812;7.132;2022-07-05T09:53:51;22.90;44.90
4107;DHT22;21906;50.812;7.132;2022-07-05T09:56:17;22.80;45.20
4107;DHT22;21906;50.812;7.132;2022-07-05T09:58:43;22.70;44.60
4107;DHT22;21906;50.812;7.132;2022-07-05T10:01:30;22.90;44.60
4107;DHT22;21906;50.812;7.132;2022-07-05T10:03:59;22.90;44.90
4107;DHT22;21906;50.812;7.132;2022-07-05T10:06:26;22.90;44.50
4107;DHT22;21906;50.812;7.132;2022-07-05T10:08:53;23.00;45.30
4107;DHT22;21906;50.812;7.132;2022-07-05T10:11:20;23.20;44.20
4107;DHT22;21906;50.812;7.132;2022-07-05T10:13:51;23.50;44.60
4107;DHT22;21906;50.812;7.132;2022-07-05T10:16:19;23.70;43.20
4107;DHT22;21906;50.812;7.132;2022-07-05T10:18:46;23.80;42.80
4107;DHT22;21906;50.812;7.132;2022-07-05T10:21:16;23.60;41.30
4107;DHT22;21906;50.812;7.132;2022-07-05T10:23:46;23.50;41.30
4107;DHT22;21906;50.812;7.132;2022-07-05T10:26:13;23.40;41.40
4107;DHT22;21906;50.812;7.132;2022-07-05T10:28:40;23.50;41.00
4107;DHT22;21906;50.812;7.132;2022-07-05T10:31:07;23.60;39.70
4107;DHT22;21906;50.812;7.132;2022-07-05T10:33:35;23.80;40.10
4107;DHT22;21906;50.812;7.132;2022-07-05T10:36:03;23.90;40.40
4107;DHT22;21906;50.812;7.132;2022-07-05T10:38:29;24.00;41.90
4107;DHT22;21906;50.812;7.132;2022-07-05T10:40:59;24.00;43.10
4107;DHT22;21906;50.812;7.132;2022-07-05T10:43:27;24.10;40.50
4107;DHT22;21906;50.812;7.132;2022-07-05T10:45:53;24.00;40.80
4107;DHT22;21906;50.812;7.132;2022-07-05T10:48:20;24.20;39.10
4107;DHT22;21906;50.812;7.132;2022-07-05T10:53:23;24.40;38.20
4107;DHT22;21906;50.812;7.132;2022-07-05T10:58:42;24.00;39.40
4107;DHT22;21906;50.812;7.132;2022-07-05T11:11:35;24.30;39.90
4107;DHT22;21906;50.812;7.132;2022-07-05T11:19:31;24.10;38.20
4107;DHT22;21906;50.812;7.132;2022-07-05T11:22:05;24.40;40.30
4107;DHT22;21906;50.812;7.132;2022-07-05T11:24:35;24.40;39.00
4107;DHT22;21906;50.812;7.132;2022-07-05T11:27:03;24.70;38.70
4107;DHT22;21906;50.812;7.132;2022-07-05T11:29:52;24.90;37.20
4107;DHT22;21906;50.812;7.132;2022-07-05T11:32:22;24.60;36.70
4107;DHT22;21906;50.812;7.132;2022-07-05T11:34:52;24.50;37.90
4107;DHT22;21906;50.812;7.132;2022-07-05T11:37:23;24.60;39.10
4107;DHT22;21906;50.812;7.132;2022-07-05T11:42:56;24.80;38.60
4107;DHT22;21906;50.812;7.132;2022-07-05T11:45:22;25.00;37.40
4107;DHT22;21906;50.812;7.132;2022-07-05T11:47:48;25.30;37.80
4107;DHT22;21906;50.812;7.132;2022-07-05T11:50:14;25.60;35.50
4107;DHT22;21906;50.812;7.132;2022-07-05T11:52:40;25.70;36.10
4107;DHT22;21906;50.812;7.132;2022-07-05T11:55:10;25.70;36.90
4107;DHT22;21906;50.812;7.132;2022-07-05T11:57:37;25.80;33.80
4107;DHT22;21906;50.812;7.132;2022-07-05T12:00:04;25.90;35.40
4107;DHT22;21906;50.812;7.132;2022-07-05T12:02:30;25.80;35.90
4107;DHT22;21906;50.812;7.132;2022-07-05T12:04:56;25.80;35.90
4107;DHT22;21906;50.812;7.132;2022-07-05T12:07:26;25.80;36.50
4107;DHT22;21906;50.812;7.132;2022-07-05T12:09:52;25.90;36.60
4107;DHT22;21906;50.812;7.132;2022-07-05T12:12:36;25.90;36.00
4107;DHT22;21906;50.812;7.132;2022-07-05T12:15:12;25.80;35.80
4107;DHT22;21906;50.812;7.132;2022-07-05T12:17:39;25.90;36.10
4107;DHT22;21906;50.812;7.132;2022-07-05T12:20:07;26.00;35.60
4107;DHT22;21906;50.812;7.132;2022-07-05T12:22:37;26.00;36.70
4107;DHT22;21906;50.812;7.132;2022-07-05T12:25:05;26.00;34.40
4107;DHT22;21906;50.812;7.132;2022-07-05T12:27:33;26.00;34.20
4107;DHT22;21906;50.812;7.132;2022-07-05T12:29:59;26.00;33.80
4107;DHT22;21906;50.812;7.132;2022-07-05T12:32:27;25.90;34.60
4107;DHT22;21906;50.812;7.132;2022-07-05T12:34:55;25.90;33.50
4107;DHT22;21906;50.812;7.132;2022-07-05T12:37:26;26.10;36.00
4107;DHT22;21906;50.812;7.132;2022-07-05T12:40:03;26.40;34.80
4107;DHT22;21906;50.812;7.132;2022-07-05T12:42:34;26.30;35.90
4107;DHT22;21906;50.812;7.132;2022-07-05T12:45:11;26.00;36.10
4107;DHT22;21906;50.812;7.132;2022-07-05T12:47:54;25.90;35.70
4107;DHT22;21906;50.812;7.132;2022-07-05T12:50:22;25.80;36.30
4107;DHT22;21906;50.812;7.132;2022-07-05T12:53:03;25.90;36.40
4107;DHT22;21906;50.812;7.132;2022-07-05T12:56:01;26.00;35.20
4107;DHT22;21906;50.812;7.132;2022-07-05T12:58:47;26.30;36.10
4107;DHT22;21906;50.812;7.132;2022-07-05T13:04:06;26.70;33.80
4107;DHT22;21906;50.812;7.132;2022-07-05T13:09:05;26.50;35.20
4107;DHT22;21906;50.812;7.132;2022-07-05T13:11:31;26.40;35.00
4107;DHT22;21906;50.812;7.132;2022-07-05T13:13:57;26.00;35.10
4107;DHT22;21906;50.812;7.132;2022-07-05T13:16:22;25.90;35.90
4107;DHT22;21906;50.812;7.132;2022-07-05T13:18:48;25.60;35.70
4107;DHT22;21906;50.812;7.132;2022-07-05T13:21:14;25.50;36.80
4107;DHT22;21906;50.812;7.132;2022-07-05T13:23:39;25.50;35.90
4107;DHT22;21906;50.812;7.132;2022-07-05T13:26:05;25.40;35.30
4107;DHT22;21906;50.812;7.132;2022-07-05T13:28:32;25.50;36.50
4107;DHT22;21906;50.812;7.132;2022-07-05T13:30:57;25.90;35.60
4107;DHT22;21906;50.812;7.132;2022-07-05T13:33:23;26.10;34.60
4107;DHT22;21906;50.812;7.132;2022-07-05T13:35:49;26.30;35.60
4107;DHT22;21906;50.812;7.132;2022-07-05T13:38:14;26.40;34.60
4107;DHT22;21906;50.812;7.132;2022-07-05T13:40:40;26.70;32.80
4107;DHT22;21906;50.812;7.132;2022-07-05T13:43:06;26.80;34.30
4107;DHT22;21906;50.812;7.132;2022-07-05T13:45:31;26.40;34.00
4107;DHT22;21906;50.812;7.132;2022-07-05T13:47:57;26.40;35.00
4107;DHT22;21906;50.812;7.132;2022-07-05T13:50:23;26.70;33.70
4107;DHT22;21906;50.812;7.132;2022-07-05T13:53:01;26.80;32.60
4107;DHT22;21906;50.812;7.132;2022-07-05T13:55:27;26.60;32.20
4107;DHT22;21906;50.812;7.132;2022-07-05T13:57:54;26.20;33.70
4107;DHT22;21906;50.812;7.132;2022-07-05T14:00:19;26.50;33.00
4107;DHT22;21906;50.812;7.132;2022-07-05T14:02:46;26.60;32.70
4107;DHT22;21906;50.812;7.132;2022-07-05T14:05:13;26.80;32.50
4107;DHT22;21906;50.812;7.132;2022-07-05T14:07:38;26.90;33.10
4107;DHT22;21906;50.812;7.132;2022-07-05T14:10:04;27.20;34.50
4107;DHT22;21906;50.812;7.132;2022-07-05T14:12:30;27.20;32.70
4107;DHT22;21906;50.812;7.132;2022-07-05T14:14:56;27.30;32.70
4107;DHT22;21906;50.812;7.132;2022-07-05T14:17:22;27.00;32.70
4107;DHT22;21906;50.812;7.132;2022-07-05T14:19:48;26.90;33.00
4107;DHT22;21906;50.812;7.132;2022-07-05T14:22:14;26.80;33.50
4107;DHT22;21906;50.812;7.132;2022-07-05T14:24:39;26.90;33.20
4107;DHT22;21906;50.812;7.132;2022-07-05T14:27:05;27.30;33.90
4107;DHT22;21906;50.812;7.132;2022-07-05T14:29:34;27.60;31.80
4107;DHT22;21906;50.812;7.132;2022-07-05T14:32:00;28.10;30.60
4107;DHT22;21906;50.812;7.132;2022-07-05T14:34:25;28.40;29.90
4107;DHT22;21906;50.812;7.132;2022-07-05T14:36:53;28.60;30.90
4107;DHT22;21906;50.812;7.132;2022-07-05T14:39:19;28.10;30.90
4107;DHT22;21906;50.812;7.132;2022-07-05T14:41:46;28.10;31.20
4107;DHT22;21906;50.812;7.132;2022-07-05T14:44:11;28.20;30.80
4107;DHT22;21906;50.812;7.132;2022-07-05T14:46:37;28.50;31.60
4107;DHT22;21906;50.812;7.132;2022-07-05T14:49:03;28.40;31.20
4107;DHT22;21906;50.812;7.132;2022-07-05T14:51:28;27.90;31.20
4107;DHT22;21906;50.812;7.132;2022-07-05T14:53:54;27.60;32.40
4107;DHT22;21906;50.812;7.132;2022-07-05T14:56:19;27.40;33.20
4107;DHT22;21906;50.812;7.132;2022-07-05T14:58:45;27.30;33.50
4107;DHT22;21906;50.812;7.132;2022-07-05T15:01:11;27.30;33.00
4107;DHT22;21906;50.812;7.132;2022-07-05T15:03:37;27.20;33.00
4107;DHT22;21906;50.812;7.132;2022-07-05T15:06:04;27.10;32.80
4107;DHT22;21906;50.812;7.132;2022-07-05T15:08:30;27.70;33.40
4107;DHT22;21906;50.812;7.132;2022-07-05T15:10:56;28.50;33.50
4107;DHT22;21906;50.812;7.132;2022-07-05T15:13:24;29.10;30.90
4107;DHT22;21906;50.812;7.132;2022-07-05T15:15:51;28.90;31.50
4107;DHT22;21906;50.812;7.132;2022-07-05T15:18:17;29.40;30.80
4107;DHT22;21906;50.812;7.132;2022-07-05T15:20:44;29.40;31.10
4107;DHT22;21906;50.812;7.132;2022-07-05T15:23:11;30.00;31.20
4107;DHT22;21906;50.812;7.132;2022-07-05T15:25:38;30.90;28.50
4107;DHT22;21906;50.812;7.132;2022-07-05T15:28:04;31.60;27.70
4107;DHT22;21906;50.812;7.132;2022-07-05T15:30:35;32.90;28.10
4107;DHT22;21906;50.812;7.132;2022-07-05T15:33:02;33.80;25.70
4107;DHT22;21906;50.812;7.132;2022-07-05T15:35:28;34.50;24.50
4107;DHT22;21906;50.812;7.132;2022-07-05T15:37:54;34.70;24.00
4107;DHT22;21906;50.812;7.132;2022-07-05T15:40:20;33.80;25.20
4107;DHT22;21906;50.812;7.132;2022-07-05T15:42:45;34.90;24.10
4107;DHT22;21906;50.812;7.132;2022-07-05T15:45:11;36.00;24.40
4107;DHT22;21906;50.812;7.132;2022-07-05T15:47:37;36.30;22.70
4107;DHT22;21906;50.812;7.132;2022-07-05T15:50:06;36.90;21.90
4107;DHT22;21906;50.812;7.132;2022-07-05T15:52:32;37.30;21.30
4107;DHT22;21906;50.812;7.132;2022-07-05T15:54:57;37.50;19.80
4107;DHT22;21906;50.812;7.132;2022-07-05T15:57:23;37.80;19.20
4107;DHT22;21906;50.812;7.132;2022-07-05T15:59:51;38.60;18.60
4107;DHT22;21906;50.812;7.132;2022-07-05T16:02:17;38.50;18.40
4107;DHT22;21906;50.812;7.132;2022-07-05T16:04:43;38.70;20.10
4107;DHT22;21906;50.812;7.132;2022-07-05T16:07:08;39.40;18.90
4107;DHT22;21906;50.812;7.132;2022-07-05T16:09:34;39.00;19.20
4107;DHT22;21906;50.812;7.132;2022-07-05T16:12:00;39.50;19.50
4107;DHT22;21906;50.812;7.132;2022-07-05T16:14:25;40.10;18.10
4107;DHT22;21906;50.812;7.132;2022-07-05T16:16:51;39.90;18.50